• Join FlightAware (Why Join?)
  • Login
  • US Flag 
Gobble Gobble! 
06:05PM EST


 

Airport Tracker/Info


-or-


 

Live Flight TrackerFlight Track Log ✈ JZA8489 ✈ 28-Apr-2013 ✈ CYQR - CYEG

Flight Track Log - Related Links

Times and Time Zones

All times are in EDT time to prevent confusion due to time zone crossing. See the JZA8489 flight status page for this flight to view local times or setup timezone preferences in your user account.

Time Position Orientation Groundspeed Altitude Reporting Facility
EDT Latitude Longitude Course Direction KTS MPH feet Rate Location/Type
07:27PM 50.4000 -104.6667 298° West 10 12 1,900  Level Winnipeg Center
07:28PM 50.4000 -104.6667 298° West 60 69 1,900 540 Level Winnipeg Center
07:29PM 50.4333 -104.7333 308° West 130 150 3,000 1,020 Climbing Winnipeg Center
07:30PM 50.4667 -104.7833 316° Northwest 160 184 4,000 1,020 Climbing Winnipeg Center
07:31PM 50.4833 -104.8333 298° West 160 184 5,100 1,140 Climbing Winnipeg Center
07:32PM 50.6322 -104.8488 328° Northwest  Level FlightAware Approximate
07:32PM 50.5167 -104.9000 308° West 160 184 6,300  Level Winnipeg Center
07:33PM 50.6768 -104.9136 298° West  Level FlightAware Approximate
07:33PM 50.5167 -104.9500 270° West 160 184 7,300  Level Winnipeg Center
07:34PM 50.5500 -105.0333 302° West 170 196 8,400 1,020 Climbing Winnipeg Center
07:35PM 50.5833 -105.1000 308° West 160 184 9,400 1,020 Climbing Winnipeg Center
07:36PM 50.6167 -105.1500 316° Northwest 170 196 10,500 1,020 Climbing Winnipeg Center
07:37PM 50.6167 -105.2000 270° West 170 196 11,500 960 Climbing Winnipeg Center
07:38PM 50.6500 -105.2667 308° West 170 196 12,500 1,020 Climbing Winnipeg Center
07:39PM 50.6833 -105.3500 302° West 170 196 13,600 960 Climbing Winnipeg Center
07:40PM 50.7000 -105.4000 298° West 160 184 14,500 900 Climbing Winnipeg Center
07:41PM 50.7167 -105.4667 292° West 160 184 15,400 780 Climbing Winnipeg Center
07:42PM 50.7500 -105.5167 317° Northwest 170 196 16,100 720 Climbing Winnipeg Center
07:43PM 50.7667 -105.6000 288° West 170 196 16,900 660 Climbing Winnipeg Center
07:44PM 50.7833 -105.6333 308° West 180 207 17,600 660 Climbing Edmonton Center
07:45PM 50.8167 -105.7167 302° West 170 196 18,300 720 Climbing Edmonton Center
07:46PM 50.8333 -105.7667 298° West 180 207 19,100 720 Climbing Edmonton Center
07:47PM 50.8667 -105.8500 302° West 170 196 19,800 420 Climbing Edmonton Center
07:48PM 50.8833 -105.9000 298° West 180 207 20,000 60 Climbing Edmonton Center
07:49PM 50.9167 -105.9833 302° West 190 219 20,000  Level Edmonton Center
07:50PM 50.9500 -106.0667 302° West 200 230 20,000  Level Edmonton Center
07:51PM 50.9667 -106.1500 288° West 210 242 20,000  Level Winnipeg Center
07:52PM 51.0000 -106.2333 302° West 210 242 20,000  Level Winnipeg Center
07:53PM 51.0333 -106.3333 298° West 220 253 20,000  Level Winnipeg Center
07:54PM 51.0667 -106.4167 303° West 220 253 20,000  Level Winnipeg Center
07:55PM 51.1000 -106.5000 303° West 220 253 20,000  Level Winnipeg Center
07:56PM 51.1167 -106.5833 288° West 220 253 20,000  Level Winnipeg Center
07:57PM 51.1500 -106.6667 303° West 220 253 20,000  Level Winnipeg Center
07:58PM 51.1833 -106.7667 298° West 220 253 20,000  Level Winnipeg Center
07:59PM 51.2167 -106.8167 317° Northwest 220 253 20,000  Level Winnipeg Center
08:00PM 51.2500 -106.9000 303° West 220 253 20,000  Level Winnipeg Center
08:01PM 51.2667 -107.0000 285° West 220 253 20,000  Level Winnipeg Center
08:02PM 51.3000 -107.0833 303° West 220 253 20,000  Level Winnipeg Center
08:03PM 51.3167 -107.1667 288° West 220 253 20,000  Level Winnipeg Center
08:04PM 51.3667 -107.2500 314° West 220 253 20,000  Level Winnipeg Center
08:05PM 51.4000 -107.3500 298° West 220 253 20,000  Level Winnipeg Center
08:06PM 51.4167 -107.4333 288° West 220 253 20,000  Level Winnipeg Center
08:07PM 51.4500 -107.5000 309° West 220 253 20,000  Level Winnipeg Center
08:08PM 51.4667 -107.6000 285° West 220 253 20,000  Level Winnipeg Center
08:09PM 51.5167 -107.6667 320° Northwest 220 253 20,000  Level Winnipeg Center
08:10PM 51.5333 -107.7500 288° West 220 253 20,000  Level Winnipeg Center
08:11PM 51.5667 -107.8500 298° West 220 253 20,000  Level Winnipeg Center
08:12PM 51.5833 -107.9333 288° West 220 253 20,000  Level Winnipeg Center
08:13PM 51.6167 -108.0167 303° West 220 253 20,000  Level Winnipeg Center
08:14PM 51.6500 -108.1167 298° West 220 253 20,000  Level Winnipeg Center
08:15PM 51.6667 -108.1833 292° West 210 242 20,000  Level Edmonton Center
08:16PM 51.7000 -108.2667 303° West 210 242 20,000  Level Edmonton Center
08:17PM 51.7333 -108.3500 303° West 210 242 20,000  Level Edmonton Center
08:18PM 51.7500 -108.4333 288° West 210 242 20,000  Level Edmonton Center
08:19PM 51.7833 -108.5167 303° West 210 242 20,000  Level Edmonton Center
08:20PM 51.8167 -108.6000 303° West 210 242 20,000  Level Edmonton Center
08:21PM 51.8333 -108.6833 288° West 210 242 20,000  Level Edmonton Center
08:22PM 51.8667 -108.7667 303° West 210 242 20,000  Level Edmonton Center
08:23PM 51.9000 -108.8500 303° West 210 242 20,000  Level Edmonton Center
08:24PM 51.9333 -108.9333 303° West 210 242 20,000  Level Edmonton Center
08:25PM 51.9500 -109.0333 285° West 210 242 20,000  Level Winnipeg Center
08:26PM 51.9833 -109.1333 298° West 220 253 20,000  Level Winnipeg Center
08:27PM 52.0000 -109.2167 288° West 210 242 20,000  Level Winnipeg Center
08:28PM 52.0333 -109.2833 309° West 220 253 20,000  Level Winnipeg Center
08:29PM 52.0667 -109.3667 303° West 210 242 20,000  Level Edmonton Center
08:30PM 52.1000 -109.4667 299° West 220 253 20,000  Level Winnipeg Center
08:31PM 52.1167 -109.5500 288° West 220 253 20,000  Level Winnipeg Center
08:32PM 52.1500 -109.6333 303° West 220 253 20,000  Level Winnipeg Center
08:33PM 52.1667 -109.7333 285° West 220 253 20,000  Level Winnipeg Center
08:34PM 52.2000 -109.7833 317° Northwest 230 265 20,000  Level Edmonton Center
08:35PM 52.2333 -109.8833 299° West 230 265 20,000  Level Edmonton Center
08:36PM 52.2500 -109.9833 285° West 230 265 20,000  Level Edmonton Center
08:37PM 52.2833 -110.0833 299° West 230 265 20,000  Level Edmonton Center
08:38PM 52.3167 -110.1667 303° West 230 265 20,000  Level Edmonton Center
08:39PM 52.3500 -110.2500 303° West 230 265 20,000  Level Edmonton Center
08:40PM 52.3833 -110.3667 295° West 230 265 20,000  Level Edmonton Center
08:41PM 52.4000 -110.4500 288° West 230 265 20,000  Level Edmonton Center
08:42PM 52.4333 -110.5333 303° West 230 265 20,000  Level Edmonton Center
08:43PM 52.4667 -110.6500 295° West 230 265 20,000  Level Winnipeg Center
08:43PM 52.4667 -110.6500 295° West 220 253 20,000  Level Edmonton Center
08:44PM 52.5000 -110.7500 299° West 230 265 20,000  Level Winnipeg Center
08:45PM 52.5167 -110.8333 288° West 230 265 20,000  Level Winnipeg Center
08:46PM 52.5333 -110.9333 285° West 230 265 20,000  Level Winnipeg Center
08:47PM 52.5667 -111.0000 309° West 220 253 20,000  Level Edmonton Center
08:48PM 52.6000 -111.0833 303° West 220 253 20,000  Level Edmonton Center
08:49PM 52.6167 -111.1833 285° West 220 253 20,000  Level Edmonton Center
08:50PM 52.6500 -111.3000 295° West 220 253 20,000  Level Edmonton Center
08:51PM 52.6833 -111.3833 303° West 220 253 20,000  Level Edmonton Center
08:52PM 52.7000 -111.4667 288° West 220 253 20,000  Level Edmonton Center
08:53PM 52.7333 -111.5667 299° West 220 253 20,000  Level Edmonton Center
08:54PM 52.7667 -111.6500 303° West 220 253 20,000  Level Edmonton Center
08:55PM 52.7833 -111.7667 283° West 220 253 20,000  Level Edmonton Center
08:56PM 52.8000 -111.8500 288° West 230 265 20,000  Level Edmonton Center
08:57PM 52.8333 -111.9333 304° West 230 265 20,000  Level Edmonton Center
08:58PM 52.8667 -112.0333 299° West 230 265 20,000  Level Edmonton Center
08:59PM 52.8833 -112.1167 288° West 230 265 20,000  Level Edmonton Center
09:00PM 52.9167 -112.2333 295° West 230 265 20,000  Level Edmonton Center
09:01PM 52.9500 -112.3167 304° West 230 265 20,000  Level Edmonton Center
09:02PM 52.9667 -112.4167 286° West 230 265 20,000 -600 Level Edmonton Center
09:03PM 53.0000 -112.5333 295° West 240 276 18,900 -1,440 Descending Edmonton Center
09:04PM 53.0000 -112.6500 270° West 260 299 17,200 -1,500 Descending Edmonton Center
09:05PM 53.0333 -112.7667 295° West 260 299 16,000 -1,200 Descending Edmonton Center
09:06PM 53.0500 -112.8833 283° West 260 299 14,800 -1,500 Descending Edmonton Center
09:07PM 53.0500 -113.0000 270° West 270 311 13,100 -1,440 Descending Edmonton Center
09:08PM 53.0500 -113.1333 270° West 250 288 12,000 -1,380 Descending Edmonton Center
09:09PM 53.0667 -113.2500 283° West 240 276 10,400 -1,560 Descending Edmonton Center
09:10PM 53.0667 -113.3667 270° West 250 288 8,900 -1,500 Descending Edmonton Center
09:11PM 53.0833 -113.4833 283° West 250 288 7,500 -1,500 Descending Edmonton Center
09:12PM 53.1333 -113.5833 310° West 260 299 5,900 -1,560 Descending Edmonton Center
09:13PM 53.1667 -113.6500 310° West 240 276 4,400 -1,020 Descending Edmonton Center
09:14PM 53.2333 -113.6500 360° North 180 207 3,900 -840 Descending Edmonton Center
09:15PM 53.2667 -113.6333 17° North 130 150 2,800 -840 Descending Edmonton Center
09:16PM 53.3000 -113.6167 17° North 110 127 2,300 -540 Descending Edmonton Center